createdAt,value
2022-09-29T00:00:40.656Z,51.81
2022-09-29T00:05:51.236Z,52.15
2022-09-29T00:10:53.473Z,52.53
2022-09-29T00:16:00.344Z,53.01
2022-09-29T00:28:26.622Z,53.92
2022-09-29T00:33:33.093Z,53.96
2022-09-29T00:38:35.388Z,52.94
2022-09-29T00:43:55.451Z,51.92
2022-09-29T00:49:00.159Z,51.68
2022-09-29T00:54:02.936Z,51.80
2022-09-29T00:59:08.333Z,52.10
2022-09-29T01:04:14.997Z,51.55
2022-09-29T01:09:26.504Z,52.02
2022-09-29T01:14:29.911Z,52.46
2022-09-29T01:20:13.357Z,52.46
2022-09-29T01:25:52.569Z,52.96
2022-09-29T01:31:00.397Z,53.28
2022-09-29T01:36:20.617Z,53.20
2022-09-29T01:41:35.696Z,53.80
2022-09-29T01:47:04.004Z,53.79
2022-09-29T01:52:12.321Z,53.96
2022-09-29T01:57:53.660Z,54.42
2022-09-29T02:03:00.487Z,54.60
2022-09-29T02:08:09.580Z,54.97
2022-09-29T02:13:12.259Z,54.68
2022-09-29T02:18:21.708Z,54.60
2022-09-29T02:23:23.631Z,54.76
2022-09-29T02:28:25.632Z,55.02
2022-09-29T02:33:27.584Z,54.71
2022-09-29T02:38:54.942Z,55.10
2022-09-29T02:44:16.029Z,54.23
2022-09-29T02:49:27.350Z,54.27
2022-09-29T02:54:35.502Z,53.53
2022-09-29T02:59:46.318Z,53.14
2022-09-29T03:04:48.060Z,52.97
2022-09-29T03:09:50.130Z,53.01
2022-09-29T03:14:52.391Z,53.22
2022-09-29T03:19:54.312Z,53.75
2022-09-29T03:24:56.442Z,53.66
2022-09-29T03:29:58.325Z,53.75
2022-09-29T03:35:00.228Z,53.69
2022-09-29T03:40:03.092Z,53.69
2022-09-29T03:45:05.516Z,54.08
2022-09-29T03:50:08.002Z,53.59
2022-09-29T03:55:10.199Z,53.70
2022-09-29T04:00:12.610Z,53.13
2022-09-29T04:05:15.176Z,53.44
2022-09-29T04:10:18.283Z,53.43
2022-09-29T04:15:20.349Z,53.34
2022-09-29T04:20:22.357Z,53.56
2022-09-29T04:25:24.260Z,52.96
2022-09-29T04:30:26.434Z,53.31
2022-09-29T04:36:55.119Z,53.30
2022-09-29T04:41:57.339Z,52.95
2022-09-29T04:46:59.317Z,53.25
2022-09-29T04:52:01.571Z,53.71
2022-09-29T04:57:03.753Z,53.60
2022-09-29T05:02:05.737Z,53.99
2022-09-29T05:07:07.915Z,54.04
2022-09-29T05:12:10.118Z,54.27
2022-09-29T05:17:12.055Z,54.71
2022-09-29T05:22:14.057Z,54.48
2022-09-29T05:27:15.956Z,54.40
2022-09-29T05:32:18.002Z,54.58
2022-09-29T05:37:20.023Z,54.31
2022-09-29T05:49:39.489Z,54.24
2022-09-29T05:54:41.368Z,54.28
2022-09-29T05:59:43.207Z,54.69
2022-09-29T06:04:45.188Z,54.54
2022-09-29T06:09:47.903Z,54.28
2022-09-29T06:14:50.469Z,54.54
2022-09-29T06:19:53.556Z,54.53
2022-09-29T06:24:55.589Z,54.44
2022-09-29T06:29:58.029Z,54.09
2022-09-29T06:35:25.637Z,54.35
2022-09-29T06:40:33.046Z,54.22
2022-09-29T06:45:35.029Z,54.32
2022-09-29T06:50:36.948Z,54.65
2022-09-29T06:55:39.189Z,54.83
2022-09-29T07:00:41.495Z,54.47
2022-09-29T07:06:15.116Z,53.76
2022-09-29T07:11:12.034Z,53.67
2022-09-29T07:16:14.922Z,53.73
2022-09-29T07:21:18.013Z,53.90
2022-09-29T07:26:21.166Z,53.95
2022-09-29T07:31:23.611Z,53.12
2022-09-29T07:36:26.109Z,53.86
2022-09-29T07:41:28.251Z,52.72
2022-09-29T07:46:30.299Z,53.83
2022-09-29T07:51:32.681Z,53.09
2022-09-29T07:56:37.007Z,53.07
2022-09-29T08:01:41.518Z,52.46
2022-09-29T08:06:43.613Z,52.31
2022-09-29T08:11:45.864Z,52.96
2022-09-29T08:16:48.411Z,52.62
2022-09-29T08:21:50.364Z,52.19
2022-09-29T08:26:52.448Z,51.70
2022-09-29T08:31:55.792Z,51.56
2022-09-29T08:36:58.433Z,51.76
2022-09-29T08:42:15.944Z,52.61
2022-09-29T08:47:26.305Z,51.92
2022-09-29T08:52:51.357Z,52.51
2022-09-29T08:57:59.196Z,52.74
2022-09-29T09:03:21.787Z,51.45
2022-09-29T09:08:48.910Z,52.81
2022-09-29T09:14:23.368Z,53.23
2022-09-29T09:19:43.518Z,51.45
2022-09-29T09:24:49.739Z,51.54
2022-09-29T09:30:01.668Z,51.44
2022-09-29T09:35:25.039Z,53.12
2022-09-29T09:40:33.203Z,50.04
2022-09-29T09:46:00.601Z,51.71
2022-09-29T09:51:32.756Z,51.14
2022-09-29T09:56:48.328Z,52.24
2022-09-29T10:01:50.226Z,52.75
2022-09-29T10:06:52.898Z,51.73
2022-09-29T10:11:54.897Z,51.37
2022-09-29T10:17:02.472Z,51.75
2022-09-29T10:22:15.283Z,51.93
2022-09-29T10:27:19.481Z,51.38
2022-09-29T10:32:36.638Z,52.18
2022-09-29T10:37:42.342Z,49.99
2022-09-29T10:42:47.116Z,50.13
2022-09-29T10:47:58.073Z,49.21
2022-09-29T10:53:03.142Z,49.02
2022-09-29T11:04:03.744Z,50.16
2022-09-29T11:09:05.611Z,48.74
2022-09-29T11:14:26.003Z,49.00
2022-09-29T11:19:30.239Z,49.16
2022-09-29T11:24:38.105Z,50.69
2022-09-29T11:30:11.257Z,50.08
2022-09-29T11:35:16.634Z,51.01
2022-09-29T11:40:30.119Z,50.97
2022-09-29T11:45:39.484Z,51.80
2022-09-29T11:50:44.324Z,51.79
2022-09-29T11:56:18.338Z,50.86
2022-09-29T12:01:22.880Z,53.26
2022-09-29T12:06:45.710Z,53.80
2022-09-29T12:12:23.174Z,55.96
2022-09-29T12:17:31.659Z,57.79
2022-09-29T12:22:36.983Z,53.96
2022-09-29T12:27:41.361Z,55.37
2022-09-29T12:32:53.971Z,52.37
2022-09-29T12:38:07.891Z,54.15
2022-09-29T12:43:19.909Z,55.41
2022-09-29T12:48:46.895Z,59.11
2022-09-29T12:54:09.974Z,65.02
2022-09-29T12:59:31.802Z,69.65
2022-09-29T13:05:18.164Z,73.57
2022-09-29T13:10:42.105Z,75.87
2022-09-29T13:15:55.614Z,77.88
2022-09-29T13:21:23.194Z,80.29
2022-09-29T13:26:26.598Z,79.54
2022-09-29T13:31:33.704Z,78.76
2022-09-29T13:36:40.797Z,78.75
2022-09-29T13:41:43.503Z,77.18
2022-09-29T13:46:45.847Z,75.76
2022-09-29T13:51:58.323Z,77.50
2022-09-29T13:57:25.417Z,75.47
2022-09-29T14:02:37.864Z,74.90
2022-09-29T14:07:49.876Z,74.79
2022-09-29T14:13:07.519Z,72.95
2022-09-29T14:18:37.566Z,74.63
2022-09-29T14:23:49.696Z,72.25
2022-09-29T14:28:53.569Z,71.91
2022-09-29T14:33:56.175Z,75.54
2022-09-29T14:39:24.582Z,72.45
2022-09-29T14:44:52.320Z,71.29
2022-09-29T14:50:22.064Z,71.94
2022-09-29T14:55:23.840Z,72.55
2022-09-29T15:01:03.328Z,71.06
2022-09-29T15:06:20.621Z,69.72
2022-09-29T15:11:27.380Z,70.03
2022-09-29T15:16:57.572Z,73.40
2022-09-29T15:22:02.312Z,68.71
2022-09-29T15:27:06.180Z,69.54
2022-09-29T15:32:26.727Z,68.36
2022-09-29T15:37:51.151Z,68.75
2022-09-29T15:42:57.447Z,67.79
2022-09-29T15:48:08.281Z,68.60
2022-09-29T15:53:11.359Z,67.40
2022-09-29T15:58:26.533Z,69.63
2022-09-29T16:03:41.687Z,67.50
2022-09-29T16:08:47.158Z,67.97
2022-09-29T16:13:55.198Z,68.91
2022-09-29T16:19:02.529Z,68.26
2022-09-29T16:24:19.423Z,68.43
2022-09-29T16:29:29.719Z,68.30
2022-09-29T16:34:33.717Z,68.10
2022-09-29T16:39:53.782Z,68.72
2022-09-29T16:44:56.562Z,68.33
2022-09-29T16:50:05.432Z,67.80
2022-09-29T16:55:22.346Z,68.78
2022-09-29T17:00:24.756Z,68.63
2022-09-29T17:05:27.815Z,68.74
2022-09-29T17:10:30.673Z,67.59
2022-09-29T17:15:32.598Z,69.41
2022-09-29T17:20:34.989Z,69.42
2022-09-29T17:25:39.147Z,70.17
2022-09-29T17:30:46.699Z,70.89
2022-09-29T17:35:55.078Z,71.64
2022-09-29T17:41:03.983Z,71.12
2022-09-29T17:46:07.104Z,71.41
2022-09-29T17:51:14.088Z,70.52
2022-09-29T17:56:27.192Z,71.10
2022-09-29T18:01:34.623Z,70.92
2022-09-29T18:06:38.248Z,69.21
2022-09-29T18:11:40.300Z,66.92
2022-09-29T18:16:42.309Z,64.37
2022-09-29T18:21:44.656Z,64.72
2022-09-29T18:26:47.256Z,62.57
2022-09-29T18:31:49.450Z,62.75
2022-09-29T18:36:51.503Z,62.66
2022-09-29T18:41:54.174Z,62.95
2022-09-29T18:46:56.785Z,64.05
2022-09-29T18:51:59.857Z,62.58
2022-09-29T18:57:02.887Z,63.57
2022-09-29T19:02:05.247Z,63.01
2022-09-29T19:07:08.397Z,63.05
2022-09-29T19:12:11.374Z,64.70
2022-09-29T19:17:13.809Z,64.69
2022-09-29T19:22:16.301Z,63.41
2022-09-29T19:27:20.122Z,63.89
2022-09-29T19:32:23.518Z,64.40
2022-09-29T19:37:26.019Z,65.43
2022-09-29T19:42:28.977Z,65.54
2022-09-29T19:47:31.265Z,65.84
2022-09-29T19:52:33.982Z,65.99
2022-09-29T19:57:35.829Z,65.93
2022-09-29T20:02:38.407Z,65.91
2022-09-29T20:07:47.002Z,66.44
2022-09-29T20:12:49.314Z,66.48
2022-09-29T20:17:52.292Z,66.17
2022-09-29T20:22:54.566Z,66.37
2022-09-29T20:27:59.041Z,66.22
2022-09-29T20:33:01.278Z,66.11
2022-09-29T20:38:03.779Z,66.41
2022-09-29T20:43:06.939Z,67.30
2022-09-29T20:48:10.898Z,68.33
2022-09-29T20:53:13.061Z,69.13
2022-09-29T20:58:15.832Z,69.39
2022-09-29T21:03:17.837Z,68.72
2022-09-29T21:08:20.285Z,68.44
2022-09-29T21:13:25.010Z,68.86
2022-09-29T21:18:27.702Z,69.84
2022-09-29T21:23:34.624Z,70.51
2022-09-29T21:28:39.657Z,70.91
2022-09-29T21:33:42.787Z,70.38
2022-09-29T21:38:45.491Z,69.41
2022-09-29T21:43:50.098Z,69.78
2022-09-29T21:48:53.626Z,70.05
2022-09-29T21:53:57.766Z,70.55
2022-09-29T21:58:59.682Z,70.84
2022-09-29T22:04:02.643Z,70.45
2022-09-29T22:09:07.431Z,70.36
2022-09-29T22:14:12.144Z,71.13
2022-09-29T22:19:29.757Z,70.06
2022-09-29T22:24:33.402Z,71.38
2022-09-29T22:29:35.611Z,72.00
2022-09-29T22:34:37.505Z,70.99
2022-09-29T22:39:39.423Z,71.14
2022-09-29T22:44:41.664Z,71.02
2022-09-29T22:49:43.995Z,70.10
2022-09-29T22:54:46.250Z,69.62
2022-09-29T22:59:48.222Z,69.94
2022-09-29T23:04:50.339Z,69.55
2022-09-29T23:09:52.662Z,70.38
2022-09-29T23:14:56.486Z,69.52
2022-09-29T23:19:59.056Z,68.75
2022-09-29T23:25:01.067Z,68.45
2022-09-29T23:30:02.970Z,68.58
2022-09-29T23:35:05.304Z,67.78
2022-09-29T23:40:07.503Z,66.46
2022-09-29T23:45:09.656Z,67.81
2022-09-29T23:50:12.511Z,67.23
2022-09-29T23:55:14.841Z,63.64
